Observation data for Anton on 12/09/2018      Previous  Date       Current Mesonet Observations  Soil Data  Daily Summary Page  Observations in Plain Language
KAOS 090600Z 31005KT M11/M11 A303 RMK A01 T11061112  RH  095%=      5-min Rain = 0
KAOS 090605Z 31004KT M11/M11 A303 RMK A01 T11061113  RH  094%=      5-min Rain = 0
KAOS 090610Z 31005KT M10/M11 A303 RMK A01 T11041109  RH  095%=      5-min Rain = 0
KAOS 090615Z 32004KT M10/M11 A303 RMK A01 T11021107  RH  095%=      5-min Rain = 0
KAOS 090620Z 31005KT M10/M11 A303 RMK A01 T11031109  RH  095%=      5-min Rain = 0
KAOS 090625Z 30005KT M11/M11 A303 RMK A01 T11061113  RH  094%=      5-min Rain = 0
KAOS 090630Z 31005KT M11/M11 A303 RMK A01 T11071114  RH  094%=      5-min Rain = 0
KAOS 090635Z 31005KT M10/M11 A303 RMK A01 T11021107  RH  096%=      5-min Rain = 0
KAOS 090640Z 32004KT M10/M10 A303 RMK A01 T10981104  RH  096%=      5-min Rain = 0
KAOS 090645Z 32005KT M10/M10 A303 RMK A01 T10971102  RH  096%=      5-min Rain = 0
KAOS 090650Z 31005KT M10/M11 A303 RMK A01 T11011108  RH  094%=      5-min Rain = 0
KAOS 090655Z 31004KT M11/M11 A303 RMK A01 T11061114  RH  094%=      5-min Rain = 0
KAOS 090700Z 32005KT M11/M11 A303 RMK A01 T11061112  RH  095%=      5-min Rain = 0
KAOS 090705Z 33005KT M10/M11 A303 RMK A01 T11021107  RH  095%=      5-min Rain = 0
KAOS 090710Z 33005KT M10/M11 A3029 RMK A01 T11011106  RH  095%=      5-min Rain = 0
KAOS 090715Z 33005KT M10/M11 A3029 RMK A01 T11011107  RH  095%=      5-min Rain = 0
KAOS 090720Z 33005KT M10/M11 A3029 RMK A01 T11021108  RH  095%=      5-min Rain = 0
KAOS 090725Z 34004KT M10/M11 A3029 RMK A01 T11011107  RH  095%=      5-min Rain = 0
KAOS 090730Z 34004KT M10/M11 A3029 RMK A01 T11001105  RH  095%=      5-min Rain = 0
KAOS 090735Z 34003KT M10/M11 A3029 RMK A01 T11011107  RH  095%=      5-min Rain = 0
KAOS 090740Z 34003KT M10/M11 A3029 RMK A01 T11031110  RH  094%=      5-min Rain = 0
KAOS 090745Z 35002KT M11/M11 A3029 RMK A01 T11051112  RH  094%=      5-min Rain = 0
KAOS 090750Z 34002KT M11/M11 A3028 RMK A01 T11061113  RH  094%=      5-min Rain = 0
KAOS 090755Z 34003KT M11/M12 A3028 RMK A01 T11101117  RH  094%=      5-min Rain = 0
KAOS 090800Z 34004KT M11/M12 A3028 RMK A01 T11101117  RH  094%=      5-min Rain = 0
KAOS 090805Z 34004KT M11/M12 A3028 RMK A01 T11091115  RH  095%=      5-min Rain = 0
KAOS 090810Z 35004KT M10/M11 A3028 RMK A01 T11041109  RH  095%=      5-min Rain = 0
KAOS 090815Z 35003KT M10/M11 A3028 RMK A01 T11031110  RH  095%=      5-min Rain = 0
KAOS 090820Z 35004KT M10/M11 A3028 RMK A01 T11041111  RH  095%=      5-min Rain = 0
KAOS 090825Z 35004KT M11/M11 A3028 RMK A01 T11051111  RH  095%=      5-min Rain = 0
KAOS 090830Z 35004KT M10/M11 A3028 RMK A01 T11021107  RH  095%=      5-min Rain = 0
KAOS 090835Z 33004KT M10/M11 A3028 RMK A01 T11031109  RH  095%=      5-min Rain = 0
KAOS 090840Z 32005KT M11/M11 A3029 RMK A01 T11051112  RH  094%=      5-min Rain = 0
KAOS 090845Z 31006KT M11/M12 A3029 RMK A01 T11081116  RH  094%=      5-min Rain = 0
KAOS 090850Z 32005KT M11/M12 A3029 RMK A01 T11111118  RH  094%=      5-min Rain = 0
KAOS 090855Z 32005KT M11/M12 A3029 RMK A01 T11121119  RH  094%=      5-min Rain = 0
KAOS 090900Z 32005KT M11/M12 A3029 RMK A01 T11121119  RH  094%=      5-min Rain = 0
KAOS 090905Z 32005KT M11/M12 A3029 RMK A01 T11121119  RH  094%=      5-min Rain = 0
KAOS 090910Z 33005KT M11/M12 A3028 RMK A01 T11111118  RH  094%=      5-min Rain = 0
KAOS 090915Z 32004KT M11/M12 A3028 RMK A01 T11111118  RH  094%=      5-min Rain = 0
KAOS 090920Z 31003KT M12/M12 A3029 RMK A01 T11151123  RH  093%=      5-min Rain = 0
KAOS 090925Z 27002KT M12/M13 A3029 RMK A01 T11191128  RH  093%=      5-min Rain = 0
KAOS 090930Z 29003KT M12/M13 A3029 RMK A01 T11191127  RH  093%=      5-min Rain = 0
KAOS 090935Z 29003KT M12/M13 A3029 RMK A01 T11181126  RH  093%=      5-min Rain = 0
KAOS 090940Z 30003KT M12/M13 A3029 RMK A01 T11181126  RH  093%=      5-min Rain = 0
KAOS 090945Z 32003KT M12/M13 A3029 RMK A01 T11181126  RH  093%=      5-min Rain = 0
KAOS 090950Z 34002KT M12/M12 A3029 RMK A01 T11161124  RH  094%=      5-min Rain = 0
KAOS 090955Z 33003KT M12/M13 A3029 RMK A01 T11181127  RH  093%=      5-min Rain = 0
KAOS 091000Z 33003KT M12/M13 A3029 RMK A01 T11191127  RH  093%=      5-min Rain = 0
KAOS 091005Z 33003KT M12/M13 A3029 RMK A01 T11191127  RH  093%=      5-min Rain = 0
KAOS 091010Z 34003KT M12/M13 A3029 RMK A01 T11181126  RH  093%=      5-min Rain = 0
KAOS 091015Z 33004KT M12/M13 A3029 RMK A01 T11191127  RH  093%=      5-min Rain = 0
KAOS 091020Z 33004KT M12/M13 A3029 RMK A01 T11221130  RH  093%=      5-min Rain = 0
KAOS 091025Z 33004KT M12/M13 A3029 RMK A01 T11221130  RH  093%=      5-min Rain = 0
KAOS 091030Z 32003KT M13/M14 A3029 RMK A01 T11251135  RH  092%=      5-min Rain = 0
KAOS 091035Z 31004KT M13/M14 A3029 RMK A01 T11291139  RH  092%=      5-min Rain = 0
KAOS 091040Z 31003KT M13/M14 A3029 RMK A01 T11291138  RH  092%=      5-min Rain = 0
KAOS 091045Z 30004KT M13/M14 A3029 RMK A01 T11311140  RH  092%=      5-min Rain = 0
KAOS 091050Z 31005KT M13/M14 A3029 RMK A01 T11311140  RH  092%=      5-min Rain = 0
KAOS 091055Z 31006KT M13/M14 A3029 RMK A01 T11301138  RH  093%=      5-min Rain = 0
KAOS 091100Z 31006KT M13/M13 A3029 RMK A01 T11251133  RH  093%=      5-min Rain = 0
KAOS 091105Z 31006KT M12/M13 A3029 RMK A01 T11241132  RH  093%=      5-min Rain = 0
KAOS 091110Z 31006KT M12/M13 A3029 RMK A01 T11221130  RH  093%=      5-min Rain = 0
KAOS 091115Z 30006KT M12/M13 A3029 RMK A01 T11181126  RH  094%=      5-min Rain = 0
KAOS 091120Z 31006KT M12/M13 A3029 RMK A01 T11171125  RH  094%=      5-min Rain = 0
KAOS 091125Z 30006KT M12/M13 A3029 RMK A01 T11181127  RH  093%=      5-min Rain = 0
KAOS 091130Z 31006KT M12/M13 A303 RMK A01 T11191127  RH  093%=      5-min Rain = 0
KAOS 091135Z 31006KT M12/M13 A303 RMK A01 T11181126  RH  094%=      5-min Rain = 0
KAOS 091140Z 31006KT M12/M12 A303 RMK A01 T11161124  RH  094%=      5-min Rain = 0
KAOS 091145Z 31006KT M12/M13 A303 RMK A01 T11181126  RH  093%=      5-min Rain = 0
KAOS 091150Z 31005KT M12/M13 A303 RMK A01 T11181126  RH  093%=      5-min Rain = 0
KAOS 091155Z 31005KT M12/M13 A303 RMK A01 T11171125  RH  093%=      5-min Rain = 0
KAOS 091200Z 31005KT M12/M13 A303 RMK A01 T11181125  RH  093%=      5-min Rain = 0
KAOS 091205Z 31005KT M12/M13 A303 RMK A01 T11201129  RH  093%=      5-min Rain = 0
KAOS 091210Z 30005KT M12/M13 A303 RMK A01 T11211130  RH  093%=      5-min Rain = 0
KAOS 091215Z 29005KT M12/M13 A303 RMK A01 T11211129  RH  093%=      5-min Rain = 0
KAOS 091220Z 29005KT M12/M13 A3031 RMK A01 T11181126  RH  094%=      5-min Rain = 0
KAOS 091225Z 26003KT M12/M13 A3031 RMK A01 T11191127  RH  093%=      5-min Rain = 0
KAOS 091230Z 27003KT M12/M13 A3031 RMK A01 T11201129  RH  093%=      5-min Rain = 0
KAOS 091235Z 29005KT M12/M13 A3031 RMK A01 T11181125  RH  094%=      5-min Rain = 0
KAOS 091240Z 29005KT M12/M12 A3031 RMK A01 T11171124  RH  094%=      5-min Rain = 0
KAOS 091245Z 29005KT M12/M13 A3031 RMK A01 T11181127  RH  093%=      5-min Rain = 0
KAOS 091250Z 29004KT M12/M13 A3031 RMK A01 T11201129  RH  093%=      5-min Rain = 0
KAOS 091255Z 28004KT M12/M13 A3031 RMK A01 T11221131  RH  093%=      5-min Rain = 0
KAOS 091300Z 29004KT M12/M13 A3032 RMK A01 T11231131  RH  093%=      5-min Rain = 0
KAOS 091305Z 30004KT M12/M13 A3032 RMK A01 T11191126  RH  094%=      5-min Rain = 0
KAOS 091310Z 30004KT M12/M12 A3032 RMK A01 T11171124  RH  094%=      5-min Rain = 0
KAOS 091315Z 30004KT M12/M12 A3032 RMK A01 T11161123  RH  094%=      5-min Rain = 0
KAOS 091320Z 29002KT M12/M12 A3033 RMK A01 T11161124  RH  093%=      5-min Rain = 0
KAOS 091325Z 30002KT M12/M13 A3033 RMK A01 T11191128  RH  093%=      5-min Rain = 0
KAOS 091330Z 31003KT M12/M13 A3033 RMK A01 T11191127  RH  093%=      5-min Rain = 0
KAOS 091335Z 31003KT M12/M13 A3034 RMK A01 T11181126  RH  093%=      5-min Rain = 0
KAOS 091340Z 31003KT M12/M13 A3034 RMK A01 T11191127  RH  093%=      5-min Rain = 0
KAOS 091345Z 31005KT M12/M13 A3034 RMK A01 T11231132  RH  092%=      5-min Rain = 0
KAOS 091350Z 31005KT M13/M14 A3034 RMK A01 T11281138  RH  092%=      5-min Rain = 0
KAOS 091355Z 31005KT M13/M14 A3034 RMK A01 T11291138  RH  092%=      5-min Rain = 0
KAOS 091400Z 31005KT M13/M14 A3034 RMK A01 T11281136  RH  092%=      5-min Rain = 0
KAOS 091405Z 31005KT M13/M13 A3034 RMK A01 T11251134  RH  093%=      5-min Rain = 0
KAOS 091410Z 31005KT M12/M13 A3035 RMK A01 T11221129  RH  093%=      5-min Rain = 0
KAOS 091415Z 30005KT M12/M13 A3035 RMK A01 T11211130  RH  093%=      5-min Rain = 0
KAOS 091420Z 30003KT M12/M13 A3035 RMK A01 T11201129  RH  093%=      5-min Rain = 0
KAOS 091425Z 29003KT M12/M13 A3035 RMK A01 T11171125  RH  093%=      5-min Rain = 0
KAOS 091430Z 30003KT M11/M12 A3035 RMK A01 T11141122  RH  094%=      5-min Rain = 0
KAOS 091435Z 28003KT M11/M12 A3035 RMK A01 T11121120  RH  093%=      5-min Rain = 0
KAOS 091440Z 28003KT M11/M12 A3036 RMK A01 T11131122  RH  093%=      5-min Rain = 0
KAOS 091445Z 27002KT M11/M12 A3036 RMK A01 T11121119  RH  093%=      5-min Rain = 0
KAOS 091450Z 28003KT M11/M12 A3036 RMK A01 T11081116  RH  094%=      5-min Rain = 0
KAOS 091455Z 28003KT M10/M11 A3036 RMK A01 T11021109  RH  095%=      5-min Rain = 0
KAOS 091500Z 28003KT M10/M10 A3036 RMK A01 T10981104  RH  095%=      5-min Rain = 0
KAOS 091505Z 28004KT M10/M10 A3036 RMK A01 T10951101  RH  095%=      5-min Rain = 0
KAOS 091510Z 28004KT M10/M10 A3036 RMK A01 T10951101  RH  094%=      5-min Rain = 0
KAOS 091515Z 30004KT M09/M10 A3037 RMK A01 T10911097  RH  095%=      5-min Rain = 0
KAOS 091520Z 30003KT M09/M09 A3037 RMK A01 T10871093  RH  096%=      5-min Rain = 0
KAOS 091525Z 31004KT M09/M09 A3037 RMK A01 T10871093  RH  095%=      5-min Rain = 0
KAOS 091530Z 30004KT M09/M09 A3037 RMK A01 T10851090  RH  096%=      5-min Rain = 0
KAOS 091535Z 30004KT M08/M09 A3038 RMK A01 T10821087  RH  096%=      5-min Rain = 0
KAOS 091540Z 31004KT M08/M08 A3038 RMK A01 T10771081  RH  096%=      5-min Rain = 0
KAOS 091545Z 32004KT M08/M08 A3038 RMK A01 T10761081  RH  096%=      5-min Rain = 0
KAOS 091550Z 31004KT M07/M08 A3038 RMK A01 T10741079  RH  096%=      5-min Rain = 0
KAOS 091555Z 30004KT M07/M08 A3038 RMK A01 T10731078  RH  096%=      5-min Rain = 0
KAOS 091600Z 30004KT M07/M08 A3038 RMK A01 T10711075  RH  097%=      5-min Rain = 0
KAOS 091605Z 30004KT M07/M07 A3038 RMK A01 T10671071  RH  097%=      5-min Rain = 0
KAOS 091610Z 29004KT M06/M07 A3038 RMK A01 T10641067  RH  098%=      5-min Rain = 0
KAOS 091615Z 28003KT M06/M06 A3039 RMK A01 T10601062  RH  098%=      5-min Rain = 0
KAOS 091620Z 28002KT M06/M06 A3039 RMK A01 T10551057  RH  099%=      5-min Rain = 0
KAOS 091625Z 29003KT M05/M05 A3039 RMK A01 T10501052  RH  099%=      5-min Rain = 0
KAOS 091630Z 29002KT M04/M05 A3039 RMK A01 T10431045  RH  099%=      5-min Rain = 0
KAOS 091635Z 30003KT M04/M04 A3039 RMK A01 T10391040  RH  099%=      5-min Rain = 0
KAOS 091640Z 30003KT M04/M04 A3039 RMK A01 T10391040  RH  099%=      5-min Rain = 0
KAOS 091645Z 29003KT M04/M04 A3039 RMK A01 T10371039  RH  099%=      5-min Rain = 0
KAOS 091650Z 24001KT M03/M04 A3039 RMK A01 T10341035  RH  099%=      5-min Rain = 0
KAOS 091655Z 19000KT M03/M03 A3039 RMK A01 T10261027  RH  100%=      5-min Rain = 0
KAOS 091700Z 17001KT M03/M03 A3039 RMK A01 T10291030  RH  100%=      5-min Rain = 0
KAOS 091705Z 15001KT M04/M04 A3039 RMK A01 T10371039  RH  099%=      5-min Rain = 0
KAOS 091710Z 19002KT M03/M04 A3039 RMK A01 T10341036  RH  099%=      5-min Rain = 0
KAOS 091715Z 22002KT M03/M03 A3039 RMK A01 T10271028  RH  100%=      5-min Rain = 0
KAOS 091720Z 25001KT M03/M03 A3039 RMK A01 T10251026  RH  100%=      5-min Rain = 0
KAOS 091725Z 25002KT M03/M03 A3039 RMK A01 T10251026  RH  100%=      5-min Rain = 0
KAOS 091730Z 25001KT M03/M03 A3039 RMK A01 T10251026  RH  099%=      5-min Rain = 0
KAOS 091735Z 24002KT M02/M03 A3039 RMK A01 T10241025  RH  099%=      5-min Rain = 0
KAOS 091740Z 24002KT M02/M02 A3039 RMK A01 T10191021  RH  100%=      5-min Rain = 0
KAOS 091745Z 23002KT M02/M02 A3039 RMK A01 T10171018  RH  100%=      5-min Rain = 0
KAOS 091750Z 25002KT M02/M02 A3039 RMK A01 T10161017  RH  100%=      5-min Rain = 0
KAOS 091755Z 26003KT M02/M02 A3039 RMK A01 T10151016  RH  100%=      5-min Rain = 0
KAOS 091800Z 28003KT M01/M02 A3038 RMK A01 T10131015  RH  100%=      5-min Rain = 0
KAOS 091805Z 27002KT M01/M01 A3038 RMK A01 T10111012  RH  100%=      5-min Rain = 0
KAOS 091810Z 27002KT M01/M01 A3038 RMK A01 T10101012  RH  100%=      5-min Rain = 0
KAOS 091815Z 27002KT M01/M01 A3037 RMK A01 T10091011  RH  100%=      5-min Rain = 0
KAOS 091820Z 26002KT M01/M01 A3037 RMK A01 T10071008  RH  100%=      5-min Rain = 0
KAOS 091825Z 27003KT M01/M01 A3037 RMK A01 T10051007  RH  100%=      5-min Rain = 0
KAOS 091830Z 27002KT M00/M01 A3036 RMK A01 T10041006  RH  100%=      5-min Rain = 0
KAOS 091835Z 29002KT M00/M00 A3036 RMK A01 T10011003  RH  100%=      5-min Rain = 0
KAOS 091840Z 31002KT 00/M00 A3036 RMK A01 T00011002  RH  100%=      5-min Rain = 0
KAOS 091845Z 32001KT 00/M00 A3036 RMK A01 T00021001  RH  099%=      5-min Rain = 0
KAOS 091850Z 30001KT 00/00 A3036 RMK A01 T00040001  RH  099%=      5-min Rain = 0
KAOS 091855Z 29001KT 01/00 A3035 RMK A01 T00060003  RH  099%=      5-min Rain = 0
KAOS 091900Z 29000KT 01/00 A3035 RMK A01 T00080004  RH  099%=      5-min Rain = 0
KAOS 091905Z 29000KT 01/01 A3035 RMK A01 T00100006  RH  098%=      5-min Rain = 0
KAOS 091910Z 24001KT 01/01 A3035 RMK A01 T00110006  RH  097%=      5-min Rain = 0
KAOS 091915Z 24002KT 01/01 A3035 RMK A01 T00120006  RH  097%=      5-min Rain = 0
KAOS 091920Z 24002KT 01/01 A3035 RMK A01 T00140007  RH  097%=      5-min Rain = 0
KAOS 091925Z 24002KT 01/01 A3035 RMK A01 T00140007  RH  096%=      5-min Rain = 0
KAOS 091930Z 24002KT 02/01 A3035 RMK A01 T00150008  RH  096%=      5-min Rain = 0
KAOS 091935Z 24002KT 01/00 A3035 RMK A01 T00130004  RH  095%=      5-min Rain = 0
KAOS 091940Z 24002KT 01/00 A3035 RMK A01 T00120003  RH  095%=      5-min Rain = 0
KAOS 091945Z 24001KT 01/00 A3034 RMK A01 T00130002  RH  094%=      5-min Rain = 0
KAOS 091950Z 24001KT 01/00 A3034 RMK A01 T001300-0  RH  092%=      5-min Rain = 0
KAOS 091955Z 25002KT 01/00 A3034 RMK A01 T00130001  RH  093%=      5-min Rain = 0
KAOS 092000Z 25002KT 02/00 A3034 RMK A01 T00150002  RH  093%=      5-min Rain = 0
KAOS 092005Z 25001KT 02/00 A3033 RMK A01 T00160003  RH  093%=      5-min Rain = 0
KAOS 092010Z 26000KT 02/01 A3033 RMK A01 T00200007  RH  092%=      5-min Rain = 0
KAOS 092015Z 28000KT 03/01 A3033 RMK A01 T00250010  RH  091%=      5-min Rain = 0
KAOS 092020Z 28000KT 03/01 A3033 RMK A01 T00310013  RH  089%=      5-min Rain = 0
KAOS 092025Z 28001KT 04/02 A3033 RMK A01 T00370015  RH  087%=      5-min Rain = 0
KAOS 092030Z 29001KT 03/01 A3033 RMK A01 T00310005  RH  084%=      5-min Rain = 0
KAOS 092035Z 29002KT 03/00 A3033 RMK A01 T00260001  RH  084%=      5-min Rain = 0
KAOS 092040Z 29002KT 03/M00 A3033 RMK A01 T00251001  RH  084%=      5-min Rain = 0
KAOS 092045Z 28001KT 03/M00 A3033 RMK A01 T00251001  RH  084%=      5-min Rain = 0
KAOS 092050Z 26001KT 03/00 A3033 RMK A01 T00300000  RH  082%=      5-min Rain = 0
KAOS 092055Z 22000KT 03/00 A3033 RMK A01 T003300-0  RH  080%=      5-min Rain = 0
KAOS 092100Z 27001KT 04/M00 A3033 RMK A01 T00391002  RH  075%=      5-min Rain = 0
KAOS 092105Z 26000KT 04/M01 A3033 RMK A01 T00381008  RH  072%=      5-min Rain = 0
KAOS 092110Z 23002KT 03/M01 A3033 RMK A01 T00321012  RH  073%=      5-min Rain = 0
KAOS 092115Z 23002KT 03/M01 A3033 RMK A01 T00321008  RH  076%=      5-min Rain = 0
KAOS 092120Z 23002KT 04/00 A3033 RMK A01 T00370002  RH  079%=      5-min Rain = 0
KAOS 092125Z 23003KT 04/00 A3033 RMK A01 T00410002  RH  077%=      5-min Rain = 0
KAOS 092130Z 24003KT 04/01 A3033 RMK A01 T00410007  RH  080%=      5-min Rain = 0
KAOS 092135Z 25003KT 04/M00 A3033 RMK A01 T00351003  RH  077%=      5-min Rain = 0
KAOS 092140Z 26003KT 03/M01 A3033 RMK A01 T00261010  RH  078%=      5-min Rain = 0
KAOS 092145Z 25003KT 03/M01 A3033 RMK A01 T00261006  RH  080%=      5-min Rain = 0
KAOS 092150Z 25002KT 03/M01 A3033 RMK A01 T00251008  RH  080%=      5-min Rain = 0
KAOS 092155Z 28002KT 03/M01 A3033 RMK A01 T00251009  RH  079%=      5-min Rain = 0
KAOS 092200Z 30001KT 02/M01 A3033 RMK A01 T00211011  RH  080%=      5-min Rain = 0
KAOS 092205Z 30001KT 01/M01 A3033 RMK A01 T00131011  RH  085%=      5-min Rain = 0
KAOS 092210Z 30000KT 01/M01 A3033 RMK A01 T00141010  RH  085%=      5-min Rain = 0
KAOS 092215Z 00000KT 02/M01 A3033 RMK A01 T00151011  RH  084%=      5-min Rain = 0
KAOS 092220Z 19000KT 02/M01 A3033 RMK A01 T00211007  RH  083%=      5-min Rain = 0
KAOS 092225Z 17001KT 03/M01 A3033 RMK A01 T00251007  RH  080%=      5-min Rain = 0
KAOS 092230Z 16002KT 02/M02 A3033 RMK A01 T00181016  RH  079%=      5-min Rain = 0
KAOS 092235Z 18003KT 01/M02 A3033 RMK A01 T00051020  RH  084%=      5-min Rain = 0
KAOS 092240Z 17003KT 00/M02 A3033 RMK A01 T00041020  RH  085%=      5-min Rain = 0
KAOS 092245Z 16003KT 00/M02 A3033 RMK A01 T00031019  RH  086%=      5-min Rain = 0
KAOS 092250Z 13002KT 00/M02 A3033 RMK A01 T00041018  RH  085%=      5-min Rain = 0
KAOS 092255Z 13003KT 00/M02 A3033 RMK A01 T00031018  RH  086%=      5-min Rain = 0
KAOS 092300Z 15003KT 00/M02 A3033 RMK A01 T00041015  RH  088%=      5-min Rain = 0
KAOS 092305Z 16004KT 00/M02 A3034 RMK A01 T00031017  RH  087%=      5-min Rain = 0
KAOS 092310Z 15004KT M00/M02 A3034 RMK A01 T10021021  RH  088%=      5-min Rain = 0
KAOS 092315Z 18004KT M01/M03 A3034 RMK A01 T10071026  RH  088%=      5-min Rain = 0
KAOS 092320Z 18003KT M01/M03 A3033 RMK A01 T10091025  RH  090%=      5-min Rain = 0
KAOS 092325Z 18003KT M01/M02 A3033 RMK A01 T10091024  RH  090%=      5-min Rain = 0
KAOS 092330Z 18003KT M01/M02 A3033 RMK A01 T10101024  RH  091%=      5-min Rain = 0
KAOS 092335Z 19004KT M01/M03 A3033 RMK A01 T10131026  RH  091%=      5-min Rain = 0
KAOS 092340Z 18005KT M02/M03 A3033 RMK A01 T10151027  RH  092%=      5-min Rain = 0
KAOS 092345Z 17004KT M02/M03 A3033 RMK A01 T10171028  RH  093%=      5-min Rain = 0
KAOS 092350Z 18004KT M02/M03 A3033 RMK A01 T10191029  RH  093%=      5-min Rain = 0
KAOS 092355Z 18004KT M02/M03 A3034 RMK A01 T10221032  RH  094%=      5-min Rain = 0
KAOS 100000Z 19005KT M02/M03 A3033 RMK A01 T10241033  RH  095%=      5-min Rain = 0
KAOS 100005Z 20005KT M03/M04 A3033 RMK A01 T10281036  RH  094%=      5-min Rain = 0
KAOS 100010Z 20005KT M03/M04 A3033 RMK A01 T10311038  RH  095%=      5-min Rain = 0
KAOS 100015Z 20005KT M03/M04 A3033 RMK A01 T10321038  RH  096%=      5-min Rain = 0
KAOS 100020Z 20005KT M03/M04 A3033 RMK A01 T10301037  RH  096%=      5-min Rain = 0
KAOS 100025Z 20005KT M03/M04 A3033 RMK A01 T10301037  RH  095%=      5-min Rain = 0
KAOS 100030Z 21004KT M03/M04 A3034 RMK A01 T10311038  RH  095%=      5-min Rain = 0
KAOS 100035Z 21003KT M03/M04 A3034 RMK A01 T10341041  RH  095%=      5-min Rain = 0
KAOS 100040Z 20003KT M04/M04 A3034 RMK A01 T10371044  RH  095%=      5-min Rain = 0
KAOS 100045Z 19003KT M04/M05 A3033 RMK A01 T10391045  RH  096%=      5-min Rain = 0
KAOS 100050Z 20004KT M04/M05 A3033 RMK A01 T10401046  RH  096%=      5-min Rain = 0
KAOS 100055Z 20004KT M04/M05 A3033 RMK A01 T10431048  RH  097%=      5-min Rain = 0
KAOS 100100Z 20004KT M04/M05 A3033 RMK A01 T10421046  RH  098%=      5-min Rain = 0
KAOS 100105Z 20003KT M04/M05 A3034 RMK A01 T10421046  RH  098%=      5-min Rain = 0
KAOS 100110Z 20002KT M05/M05 A3035 RMK A01 T10471051  RH  097%=      5-min Rain = 0
KAOS 100115Z 21002KT M05/M06 A3035 RMK A01 T10511055  RH  098%=      5-min Rain = 0
KAOS 100120Z 20002KT M05/M05 A3035 RMK A01 T10471049  RH  099%=      5-min Rain = 0
KAOS 100125Z 21002KT M04/M05 A3035 RMK A01 T10441046  RH  099%=      5-min Rain = 0
KAOS 100130Z 21002KT M04/M04 A3035 RMK A01 T10431044  RH  100%=      5-min Rain = 0
KAOS 100135Z 22002KT M04/M04 A3035 RMK A01 T10431044  RH  099%=      5-min Rain = 0
KAOS 100140Z 22003KT M04/M04 A3035 RMK A01 T10401040  RH  100%=      5-min Rain = 0
KAOS 100145Z 22002KT M04/M04 A3036 RMK A01 T10411042  RH  100%=      5-min Rain = 0
KAOS 100150Z 22003KT M04/M04 A3036 RMK A01 T10411042  RH  100%=      5-min Rain = 0
KAOS 100155Z 22002KT M04/M04 A3036 RMK A01 T10431044  RH  100%=      5-min Rain = 0
KAOS 100200Z 22002KT M04/M04 A3036 RMK A01 T10421043  RH  100%=      5-min Rain = 0
KAOS 100205Z 22003KT M04/M04 A3036 RMK A01 T10431044  RH  100%=      5-min Rain = 0
KAOS 100210Z 22003KT M05/M05 A3036 RMK A01 T10491052  RH  099%=      5-min Rain = 0
KAOS 100215Z 23003KT M04/M04 A3037 RMK A01 T10411041  RH  100%=      5-min Rain = 0
KAOS 100220Z 25003KT M04/M04 A3037 RMK A01 T10401041  RH  100%=      5-min Rain = 0
KAOS 100225Z 25003KT M05/M05 A3037 RMK A01 T10491051  RH  099%=      5-min Rain = 0
KAOS 100230Z 26003KT M05/M05 A3037 RMK A01 T10521054  RH  099%=      5-min Rain = 0
KAOS 100235Z 28004KT M06/M06 A3037 RMK A01 T10591062  RH  098%=      5-min Rain = 0
KAOS 100240Z 29005KT M06/M06 A3037 RMK A01 T10591061  RH  099%=      5-min Rain = 0
KAOS 100245Z 30006KT M05/M06 A3038 RMK A01 T10541055  RH  100%=      5-min Rain = 0
KAOS 100250Z 29006KT M06/M06 A3038 RMK A01 T10601062  RH  098%=      5-min Rain = 0
KAOS 100255Z 30006KT M06/M06 A3038 RMK A01 T10601062  RH  099%=      5-min Rain = 0
KAOS 100300Z 30006KT M06/M06 A3038 RMK A01 T10611063  RH  099%=      5-min Rain = 0
KAOS 100305Z 31006KT M06/M06 A3037 RMK A01 T10601062  RH  099%=      5-min Rain = 0
KAOS 100310Z 30006KT M06/M07 A3038 RMK A01 T10621065  RH  098%=      5-min Rain = 0
KAOS 100315Z 30006KT M08/M09 A3037 RMK A01 T10831091  RH  094%=      5-min Rain = 0
KAOS 100320Z 31006KT M09/M10 A3038 RMK A01 T10931099  RH  095%=      5-min Rain = 0
KAOS 100325Z 30006KT M09/M10 A3038 RMK A01 T10941099  RH  096%=      5-min Rain = 0
KAOS 100330Z 30006KT M10/M10 A3038 RMK A01 T10951100  RH  096%=      5-min Rain = 0
KAOS 100335Z 29006KT M09/M10 A3037 RMK A01 T10941099  RH  096%=      5-min Rain = 0
KAOS 100340Z 29007KT M10/M10 A3037 RMK A01 T10961102  RH  095%=      5-min Rain = 0
KAOS 100345Z 29007KT M10/M10 A3038 RMK A01 T10961101  RH  096%=      5-min Rain = 0
KAOS 100350Z 30007KT M09/M09 A3038 RMK A01 T10901094  RH  097%=      5-min Rain = 0
KAOS 100355Z 30007KT M09/M09 A3038 RMK A01 T10851089  RH  097%=      5-min Rain = 0
KAOS 100400Z 29007KT M08/M09 A3038 RMK A01 T10811085  RH  097%=      5-min Rain = 0
KAOS 100405Z 28007KT M08/M09 A3038 RMK A01 T10841088  RH  096%=      5-min Rain = 0
KAOS 100410Z 28007KT M09/M10 A3038 RMK A01 T10911097  RH  095%=      5-min Rain = 0
KAOS 100415Z 28008KT M09/M10 A3038 RMK A01 T10901095  RH  096%=      5-min Rain = 0
KAOS 100420Z 28009KT M09/M09 A3038 RMK A01 T10891093  RH  096%=      5-min Rain = 0
KAOS 100425Z 28009KT M08/M09 A3038 RMK A01 T10821085  RH  098%=      5-min Rain = 0
KAOS 100430Z 28009KT M08/M08 A3039 RMK A01 T10801084  RH  097%=      5-min Rain = 0
KAOS 100435Z 29009KT M08/M08 A3038 RMK A01 T10791083  RH  097%=      5-min Rain = 0
KAOS 100440Z 28009KT M08/M09 A3038 RMK A01 T10821087  RH  096%=      5-min Rain = 0
KAOS 100445Z 28010KT M08/M09 A3038 RMK A01 T10831088  RH  097%=      5-min Rain = 0
KAOS 100450Z 28011KT M08/M08 A3038 RMK A01 T10791082  RH  097%=      5-min Rain = 0
KAOS 100455Z 28011KT M08/M08 A3038 RMK A01 T10761079  RH  098%=      5-min Rain = 0
KAOS 100500Z 27011KT M07/M07 A3039 RMK A01 T10711074  RH  098%=      5-min Rain = 0
KAOS 100505Z 27009KT M07/M07 A3038 RMK A01 T10701073  RH  098%=      5-min Rain = 0
KAOS 100510Z 27009KT M07/M07 A3038 RMK A01 T10681070  RH  098%=      5-min Rain = 0
KAOS 100515Z 27009KT M07/M07 A3038 RMK A01 T10671070  RH  098%=      5-min Rain = 0
KAOS 100520Z 27010KT M07/M07 A3038 RMK A01 T10701073  RH  097%=      5-min Rain = 0
KAOS 100525Z 27010KT M07/M07 A3038 RMK A01 T10701073  RH  098%=      5-min Rain = 0
KAOS 100530Z 27009KT M07/M08 A3038 RMK A01 T10711075  RH  097%=      5-min Rain = 0
KAOS 100535Z 27007KT M07/M08 A3038 RMK A01 T10721076  RH  097%=      5-min Rain = 0
KAOS 100540Z 28005KT M08/M08 A3038 RMK A01 T10751079  RH  097%=      5-min Rain = 0
KAOS 100545Z 30005KT M08/M08 A3038 RMK A01 T10771081  RH  097%=      5-min Rain = 0
KAOS 100550Z 29007KT M08/M08 A3038 RMK A01 T10771081  RH  097%=      5-min Rain = 0
KAOS 100555Z 29008KT M08/M09 A3038 RMK A01 T10811086  RH  096%=      5-min Rain = 0

Page generated in 0.0196 seconds.